Terminal Aerodrome Forecast
Issued by NWS

Home | Current Version | Previous Version | Text Only | Print | Product List | Glossary On
Versions: 1 2 3 4 5 6 7 8 9 10 11 12 13 14 15 16 17 18 19 20 21 22 23 24 25 26 27 28 29 30 31
594
FTUS43 KDVN 170535
TAFCID
TAF
KCID 170535Z 1706/1806 35004KT 2SM -RA BR OVC006
     FM170700 33005KT 1/4SM -DZ FG OVC002
     FM171200 29008KT 2SM BR OVC005
     FM171600 29012KT 5SM BR OVC008
     FM180100 28007KT 5SM BR BKN020=

USA.gov is the U.S. government's official web portal to all federal, state and local government web resources and services.